Time;durP1;ratioP1;P1;durP2;ratioP2;P2;SDS_P1;SDS_P2;PMS_P1;PMS_P2;Temp;Humidity;BMP_temperature;BMP_pressure;BME280_temperature;BME280_humidity;BME280_pressure;Samples;Min_cycle;Max_cycle;Signal;HPM_P1;HPM_P2
2021/05/25 00:01:52;;;;;;;3.92;3.58;;;;;;;;;;5136180;27;20286;-76
2021/05/25 00:04:19;;;;;;;4.87;3.90;;;;;;;;;;5136306;27;20283;-77
2021/05/25 00:06:46;;;;;;;4.18;3.83;;;;;;;;;;5136035;27;20440;-76
2021/05/25 00:09:13;;;;;;;3.80;3.50;;;;;;;;;;5135668;27;20251;-78
2021/05/25 00:11:40;;;;;;;3.58;3.28;;;;;;;;;;5135836;27;20683;-74
2021/05/25 00:14:08;;;;;;;3.30;3.00;;;;;;;;;;5136024;27;20648;-76
2021/05/25 00:16:34;;;;;;;5.05;3.67;;;;;;;;;;5135816;27;20289;-75
2021/05/25 00:19:01;;;;;;;3.95;2.75;;;;;;;;;;5136305;27;20220;-74
2021/05/25 00:21:28;;;;;;;3.33;3.00;;;;;;;;;;5135761;27;20199;-74
2021/05/25 00:23:55;;;;;;;3.33;2.72;;;;;;;;;;5135791;27;20202;-74
2021/05/25 00:26:21;;;;;;;3.60;3.30;;;;;;;;;;5135503;27;20319;-75
2021/05/25 00:28:48;;;;;;;2.95;2.75;;;;;;;;;;5135374;27;20199;-75
2021/05/25 00:31:15;;;;;;;4.38;3.08;;;;;;;;;;5135504;27;20191;-74
2021/05/25 00:33:42;;;;;;;3.55;2.75;;;;;;;;;;5135481;27;20222;-74
2021/05/25 00:36:11;;;;;;;3.92;2.97;;;;;;;;;;5135461;27;20190;-74
2021/05/25 00:38:37;;;;;;;2.75;2.55;;;;;;;;;;5135270;27;20201;-74
2021/05/25 00:41:04;;;;;;;3.05;2.50;;;;;;;;;;5134923;27;20194;-74
2021/05/25 00:43:31;;;;;;;3.60;2.60;;;;;;;;;;5135297;27;20202;-74
2021/05/25 00:45:58;;;;;;;2.38;2.17;;;;;;;;;;5136076;27;20667;-74
2021/05/25 00:48:25;;;;;;;2.58;2.38;;;;;;;;;;5134955;27;20724;-74
2021/05/25 00:50:53;;;;;;;2.97;2.50;;;;;;;;;;5135723;27;20195;-75
2021/05/25 00:53:20;;;;;;;5.70;2.90;;;;;;;;;;5135144;27;20217;-75
2021/05/25 00:55:46;;;;;;;7.60;3.00;;;;;;;;;;5135212;27;20192;-75
2021/05/25 00:58:13;;;;;;;3.65;2.97;;;;;;;;;;5134704;27;20670;-75
2021/05/25 01:00:41;;;;;;;3.85;2.63;;;;;;;;;;5134628;27;20197;-75
2021/05/25 01:03:08;;;;;;;3.30;3.00;;;;;;;;;;5134973;27;20561;-75
2021/05/25 01:05:35;;;;;;;3.05;2.75;;;;;;;;;;5134454;27;20202;-76
2021/05/25 01:08:02;;;;;;;2.40;2.20;;;;;;;;;;5134816;27;20196;-75
2021/05/25 01:10:31;;;;;;;3.47;2.28;;;;;;;;;;5134470;27;20289;-74
2021/05/25 01:13:01;;;;;;;2.47;2.20;;;;;;;;;;5134293;27;20210;-74
2021/05/25 01:15:27;;;;;;;2.55;2.35;;;;;;;;;;5135140;27;20289;-74
2021/05/25 01:17:55;;;;;;;2.40;2.10;;;;;;;;;;5134714;27;20289;-75
2021/05/25 01:20:22;;;;;;;3.15;2.20;;;;;;;;;;5134582;27;20198;-76
2021/05/25 01:22:50;;;;;;;6.90;2.97;;;;;;;;;;5134590;27;20271;-75
2021/05/25 01:25:17;;;;;;;2.30;2.10;;;;;;;;;;5134027;27;20224;-75
2021/05/25 01:27:49;;;;;;;3.67;1.90;;;;;;;;;;5134164;27;20244;-75
2021/05/25 01:30:19;;;;;;;2.60;2.40;;;;;;;;;;5135032;27;20185;-75
2021/05/25 01:32:46;;;;;;;2.42;2.22;;;;;;;;;;5134355;27;20220;-75
2021/05/25 01:35:13;;;;;;;3.05;2.60;;;;;;;;;;5134669;27;20198;-77
2021/05/25 01:37:39;;;;;;;2.85;2.35;;;;;;;;;;5134221;27;20190;-76
2021/05/25 01:40:08;;;;;;;1.92;1.83;;;;;;;;;;5134345;27;20202;-76
2021/05/25 01:42:36;;;;;;;2.33;2.10;;;;;;;;;;5133989;27;20203;-76
2021/05/25 01:45:04;;;;;;;2.45;2.28;;;;;;;;;;5133919;27;20198;-76
2021/05/25 01:47:31;;;;;;;1.75;1.65;;;;;;;;;;5134196;27;20189;-75
2021/05/25 01:50:11;;;;;;;3.17;2.60;;;;;;;;;;5133987;28;20751;-76
2021/05/25 01:52:38;;;;;;;2.50;2.15;;;;;;;;;;5133747;27;20213;-76
2021/05/25 01:55:07;;;;;;;2.88;2.20;;;;;;;;;;5134563;28;20222;-75
2021/05/25 01:57:34;;;;;;;2.20;2.10;;;;;;;;;;5134406;28;20229;-74
2021/05/25 02:00:01;;;;;;;3.75;2.30;;;;;;;;;;5134167;28;20200;-76
2021/05/25 02:02:28;;;;;;;2.42;2.22;;;;;;;;;;5133831;28;20229;-75
2021/05/25 02:04:55;;;;;;;3.22;2.72;;;;;;;;;;5133835;28;20277;-77
2021/05/25 02:07:21;;;;;;;3.28;2.50;;;;;;;;;;5134013;28;20193;-77
2021/05/25 02:09:48;;;;;;;2.75;2.10;;;;;;;;;;5134551;28;20284;-76
2021/05/25 02:12:18;;;;;;;3.67;2.40;;;;;;;;;;5133666;28;20193;-75
2021/05/25 02:14:45;;;;;;;2.40;2.20;;;;;;;;;;5133694;28;20192;-75
2021/05/25 02:17:12;;;;;;;2.70;2.50;;;;;;;;;;5133688;28;20676;-75
2021/05/25 02:19:38;;;;;;;2.88;2.55;;;;;;;;;;5133954;28;20199;-75
2021/05/25 02:22:05;;;;;;;3.75;2.50;;;;;;;;;;5133700;28;20647;-75
2021/05/25 02:24:32;;;;;;;3.60;3.00;;;;;;;;;;5133679;28;20194;-75
2021/05/25 02:26:59;;;;;;;5.70;2.83;;;;;;;;;;5133963;27;20517;-74
2021/05/25 02:29:25;;;;;;;3.45;3.08;;;;;;;;;;5133942;28;20284;-75
2021/05/25 02:31:53;;;;;;;3.20;3.00;;;;;;;;;;5133970;28;20245;-75
2021/05/25 02:34:19;;;;;;;3.58;3.33;;;;;;;;;;5133874;28;20223;-75
2021/05/25 02:36:46;;;;;;;4.85;3.08;;;;;;;;;;5133593;28;20198;-75
2021/05/25 02:39:13;;;;;;;6.03;3.08;;;;;;;;;;5133617;28;20218;-74
2021/05/25 02:41:39;;;;;;;3.47;3.17;;;;;;;;;;5133856;28;20245;-75
2021/05/25 02:44:07;;;;;;;4.43;3.55;;;;;;;;;;5133356;28;20199;-75
2021/05/25 02:46:33;;;;;;;5.82;3.33;;;;;;;;;;5133593;28;20280;-75
2021/05/25 02:49:01;;;;;;;4.07;3.10;;;;;;;;;;5133602;28;20196;-75
2021/05/25 02:51:27;;;;;;;4.72;3.22;;;;;;;;;;5133308;28;20650;-75
2021/05/25 02:53:54;;;;;;;3.38;2.83;;;;;;;;;;5133624;28;20215;-75
2021/05/25 02:56:21;;;;;;;4.55;3.65;;;;;;;;;;5133292;28;20667;-75
2021/05/25 02:58:47;;;;;;;5.45;3.08;;;;;;;;;;5133811;28;20197;-76
2021/05/25 03:01:14;;;;;;;4.78;2.97;;;;;;;;;;5133316;28;20284;-75
2021/05/25 03:03:41;;;;;;;3.35;3.05;;;;;;;;;;5134922;27;20303;-76
2021/05/25 03:06:08;;;;;;;4.65;3.33;;;;;;;;;;5137352;27;20188;-77
2021/05/25 03:08:35;;;;;;;3.85;2.85;;;;;;;;;;5137560;27;20230;-77
2021/05/25 03:11:02;;;;;;;4.75;3.10;;;;;;;;;;5136882;27;20192;-76
2021/05/25 03:13:28;;;;;;;3.65;3.33;;;;;;;;;;5137203;27;20572;-77
2021/05/25 03:15:55;;;;;;;3.60;3.30;;;;;;;;;;5137096;27;20199;-76
2021/05/25 03:18:22;;;;;;;3.95;3.05;;;;;;;;;;5137077;27;20197;-76
2021/05/25 03:20:49;;;;;;;3.40;3.10;;;;;;;;;;5137455;27;20207;-76
2021/05/25 03:23:17;;;;;;;4.72;2.95;;;;;;;;;;5136821;27;20192;-76
2021/05/25 03:25:44;;;;;;;3.45;3.15;;;;;;;;;;5137095;27;20232;-76
2021/05/25 03:28:11;;;;;;;3.22;2.92;;;;;;;;;;5137335;27;20207;-76
2021/05/25 03:30:39;;;;;;;3.00;2.80;;;;;;;;;;5136844;27;20256;-77
2021/05/25 03:33:06;;;;;;;2.58;2.38;;;;;;;;;;5136434;27;20765;-76
2021/05/25 03:35:33;;;;;;;3.35;3.10;;;;;;;;;;5136672;27;20193;-74
2021/05/25 03:38:00;;;;;;;5.57;3.30;;;;;;;;;;5136638;27;20630;-74
2021/05/25 03:40:27;;;;;;;3.47;3.28;;;;;;;;;;5136783;27;20189;-75
2021/05/25 03:42:54;;;;;;;7.53;3.40;;;;;;;;;;5136226;27;20668;-75
2021/05/25 03:45:21;;;;;;;3.83;3.08;;;;;;;;;;5136498;27;20189;-75
2021/05/25 03:47:48;;;;;;;5.95;3.00;;;;;;;;;;5136467;27;20296;-75
2021/05/25 03:50:15;;;;;;;2.85;2.65;;;;;;;;;;5136108;27;20189;-75
2021/05/25 03:52:43;;;;;;;4.72;3.08;;;;;;;;;;5136785;27;20258;-75
2021/05/25 03:55:16;;;;;;;6.88;4.03;;;;;;;;;;5136329;27;20192;-75
2021/05/25 04:00:28;;;;;;;4.22;3.83;;;;;;;;;;5136134;27;20218;-73
2021/05/25 04:02:55;;;;;;;9.73;3.83;;;;;;;;;;5135851;27;20661;-76
2021/05/25 04:05:21;;;;;;;3.58;3.20;;;;;;;;;;5136071;27;20223;-76
2021/05/25 04:07:48;;;;;;;6.50;4.00;;;;;;;;;;5136097;27;20587;-77
2021/05/25 04:10:15;;;;;;;3.95;3.15;;;;;;;;;;5135948;27;20198;-76
2021/05/25 04:12:41;;;;;;;5.35;3.60;;;;;;;;;;5135529;27;20224;-77
2021/05/25 04:15:10;;;;;;;3.85;3.47;;;;;;;;;;5133538;27;20531;-75
2021/05/25 04:17:37;;;;;;;6.60;3.30;;;;;;;;;;5126705;27;20205;-76
2021/05/25 04:20:04;;;;;;;4.05;3.45;;;;;;;;;;5135428;27;20201;-77
2021/05/25 04:22:31;;;;;;;5.00;3.78;;;;;;;;;;5135707;27;20673;-77
2021/05/25 04:24:57;;;;;;;5.20;4.10;;;;;;;;;;5135595;27;20203;-76
2021/05/25 04:27:24;;;;;;;4.43;3.40;;;;;;;;;;5135627;27;20224;-76
2021/05/25 04:29:51;;;;;;;3.25;3.05;;;;;;;;;;5135595;27;20284;-76
2021/05/25 04:32:18;;;;;;;4.90;4.03;;;;;;;;;;5135363;27;20192;-76
2021/05/25 04:34:45;;;;;;;6.65;4.05;;;;;;;;;;5135429;27;20201;-77
2021/05/25 04:37:12;;;;;;;5.50;3.47;;;;;;;;;;5134911;27;20206;-76
2021/05/25 04:39:38;;;;;;;4.40;3.30;;;;;;;;;;5135403;27;20529;-77
2021/05/25 04:42:05;;;;;;;5.80;2.70;;;;;;;;;;5135824;27;20243;-76
2021/05/25 04:44:32;;;;;;;3.47;3.17;;;;;;;;;;5132073;27;20239;-77
2021/05/25 04:46:59;;;;;;;5.28;3.22;;;;;;;;;;5114357;28;20345;-75
2021/05/25 04:49:26;;;;;;;3.30;3.00;;;;;;;;;;5114360;28;20198;-75
2021/05/25 04:51:53;;;;;;;3.33;2.80;;;;;;;;;;5114568;28;20263;-75
2021/05/25 04:54:20;;;;;;;5.38;3.55;;;;;;;;;;5114370;28;20243;-74
2021/05/25 04:56:46;;;;;;;5.72;3.15;;;;;;;;;;5114459;28;20195;-74
2021/05/25 04:59:13;;;;;;;3.15;2.70;;;;;;;;;;5113955;28;20209;-74
2021/05/25 05:01:40;;;;;;;3.92;2.67;;;;;;;;;;5113782;28;20221;-74
2021/05/25 05:04:06;;;;;;;2.60;2.40;;;;;;;;;;5114584;28;20200;-75
2021/05/25 05:06:34;;;;;;;3.53;2.20;;;;;;;;;;5114371;28;20227;-75
2021/05/25 05:09:00;;;;;;;2.28;2.08;;;;;;;;;;5114381;28;20207;-74
2021/05/25 05:11:27;;;;;;;2.45;2.25;;;;;;;;;;5114293;28;20222;-75
2021/05/25 05:13:54;;;;;;;4.43;2.25;;;;;;;;;;5114286;28;20230;-74
2021/05/25 05:16:21;;;;;;;2.20;2.00;;;;;;;;;;5113665;28;20199;-75
2021/05/25 05:18:47;;;;;;;3.40;1.67;;;;;;;;;;5114150;28;20199;-74
2021/05/25 05:21:14;;;;;;;2.75;2.30;;;;;;;;;;5114315;28;20202;-75
2021/05/25 05:23:41;;;;;;;2.35;2.15;;;;;;;;;;5114016;28;20203;-75
2021/05/25 05:26:08;;;;;;;5.43;2.13;;;;;;;;;;5113128;28;20218;-75
2021/05/25 05:28:35;;;;;;;3.50;2.00;;;;;;;;;;5114048;28;20238;-74
2021/05/25 05:31:02;;;;;;;3.28;2.17;;;;;;;;;;5114405;28;20225;-78
2021/05/25 05:33:29;;;;;;;2.50;2.30;;;;;;;;;;5113638;28;20222;-77
2021/05/25 05:35:55;;;;;;;2.60;2.38;;;;;;;;;;5113818;28;20647;-78
2021/05/25 05:38:23;;;;;;;3.00;2.80;;;;;;;;;;5114119;28;20229;-78
2021/05/25 05:40:51;;;;;;;2.47;2.30;;;;;;;;;;5113646;28;20223;-77
2021/05/25 05:43:18;;;;;;;4.93;2.40;;;;;;;;;;5113981;28;20646;-78
2021/05/25 05:45:45;;;;;;;2.80;2.40;;;;;;;;;;5113491;28;20205;-78
2021/05/25 05:48:12;;;;;;;2.40;2.10;;;;;;;;;;5113749;28;20252;-77
2021/05/25 05:50:38;;;;;;;2.67;2.33;;;;;;;;;;5113375;28;20323;-78
2021/05/25 05:53:05;;;;;;;2.97;2.30;;;;;;;;;;5113408;28;20246;-79
2021/05/25 05:55:32;;;;;;;3.28;1.85;;;;;;;;;;5113565;28;20286;-79
2021/05/25 05:57:59;;;;;;;3.53;2.92;;;;;;;;;;5113737;28;20207;-77
2021/05/25 06:00:26;;;;;;;3.13;2.10;;;;;;;;;;5113753;28;20196;-78
2021/05/25 06:02:53;;;;;;;2.20;2.00;;;;;;;;;;5114224;28;20220;-79
2021/05/25 06:05:20;;;;;;;2.35;2.13;;;;;;;;;;5114091;28;20197;-78
2021/05/25 06:07:46;;;;;;;3.50;2.25;;;;;;;;;;5113290;28;20203;-79
2021/05/25 06:10:14;;;;;;;4.43;2.40;;;;;;;;;;5113554;28;20287;-77
2021/05/25 06:12:40;;;;;;;2.58;2.38;;;;;;;;;;5113203;28;20200;-78
2021/05/25 06:15:08;;;;;;;2.95;2.38;;;;;;;;;;5113644;28;20191;-77
2021/05/25 06:17:36;;;;;;;3.53;2.47;;;;;;;;;;5113520;28;20191;-78
2021/05/25 06:20:03;;;;;;;4.05;2.10;;;;;;;;;;5113747;28;20195;-77
2021/05/25 06:22:29;;;;;;;3.55;2.15;;;;;;;;;;5113552;28;20247;-80
2021/05/25 06:24:56;;;;;;;2.53;2.30;;;;;;;;;;5114096;28;20287;-78
2021/05/25 06:27:23;;;;;;;2.58;2.17;;;;;;;;;;5113865;28;20226;-77
2021/05/25 06:29:50;;;;;;;3.30;2.97;;;;;;;;;;5113255;28;20209;-79
2021/05/25 06:32:17;;;;;;;3.50;2.28;;;;;;;;;;5113373;28;20552;-79
2021/05/25 06:34:44;;;;;;;4.40;2.42;;;;;;;;;;5113118;28;20700;-78
2021/05/25 06:37:11;;;;;;;3.13;2.50;;;;;;;;;;5114117;28;20195;-78
2021/05/25 06:39:37;;;;;;;4.00;2.30;;;;;;;;;;5116982;28;21002;-78
2021/05/25 06:42:04;;;;;;;9.43;3.80;;;;;;;;;;5117345;28;20307;-78
2021/05/25 06:44:31;;;;;;;3.33;2.55;;;;;;;;;;5116868;28;20310;-78
2021/05/25 06:46:58;;;;;;;3.77;2.30;;;;;;;;;;5117043;28;20224;-78
2021/05/25 06:49:26;;;;;;;3.40;2.22;;;;;;;;;;5117598;28;20444;-78
2021/05/25 06:51:53;;;;;;;3.15;2.38;;;;;;;;;;5117159;28;20552;-78
2021/05/25 06:54:21;;;;;;;3.85;2.53;;;;;;;;;;5117042;28;20222;-78
2021/05/25 06:56:47;;;;;;;3.47;3.28;;;;;;;;;;5116884;28;20218;-78
2021/05/25 06:59:14;;;;;;;5.65;2.42;;;;;;;;;;5116953;28;20196;-78
2021/05/25 07:01:41;;;;;;;6.57;2.40;;;;;;;;;;5117410;28;20191;-78
2021/05/25 07:04:08;;;;;;;8.77;5.55;;;;;;;;;;5117462;28;20203;-78
2021/05/25 07:06:35;;;;;;;4.13;3.15;;;;;;;;;;5116459;28;20195;-79
2021/05/25 07:09:03;;;;;;;3.40;3.10;;;;;;;;;;5117315;28;20194;-79
2021/05/25 07:11:30;;;;;;;8.80;3.70;;;;;;;;;;5116178;28;20199;-79
2021/05/25 07:13:57;;;;;;;3.90;3.50;;;;;;;;;;5116544;28;20314;-78
2021/05/25 07:16:24;;;;;;;3.78;3.47;;;;;;;;;;5116172;28;20206;-78
2021/05/25 07:18:51;;;;;;;4.55;3.20;;;;;;;;;;5116158;28;20228;-78
2021/05/25 07:21:17;;;;;;;3.63;3.33;;;;;;;;;;5116387;28;20199;-77
2021/05/25 07:23:45;;;;;;;4.38;3.38;;;;;;;;;;5116064;28;20199;-78
2021/05/25 07:26:12;;;;;;;4.15;3.78;;;;;;;;;;5115994;28;20220;-77
2021/05/25 07:28:38;;;;;;;4.13;3.33;;;;;;;;;;5116316;28;20195;-78
2021/05/25 07:31:05;;;;;;;5.50;3.90;;;;;;;;;;5115996;28;20205;-79
2021/05/25 07:33:32;;;;;;;3.15;2.95;;;;;;;;;;5115853;28;20291;-78
2021/05/25 07:35:58;;;;;;;4.18;2.72;;;;;;;;;;5116377;28;20280;-77
2021/05/25 07:38:25;;;;;;;3.88;3.58;;;;;;;;;;5116525;28;20518;-79
2021/05/25 07:40:53;;;;;;;3.50;3.20;;;;;;;;;;5116034;28;20244;-77
2021/05/25 07:43:20;;;;;;;3.42;3.22;;;;;;;;;;5115690;28;20205;-80
2021/05/25 07:45:46;;;;;;;3.63;3.33;;;;;;;;;;5116060;28;20573;-79
2021/05/25 07:48:13;;;;;;;4.78;3.42;;;;;;;;;;5115615;28;20207;-79
2021/05/25 07:50:40;;;;;;;3.55;3.22;;;;;;;;;;5115195;28;20234;-78
2021/05/25 07:53:07;;;;;;;4.57;3.80;;;;;;;;;;5115933;28;20306;-79
2021/05/25 07:55:34;;;;;;;3.75;3.28;;;;;;;;;;5115737;28;20611;-78
2021/05/25 07:58:02;;;;;;;3.28;3.08;;;;;;;;;;5115680;28;20196;-78
2021/05/25 08:00:29;;;;;;;4.07;3.40;;;;;;;;;;5115670;28;20208;-78
2021/05/25 08:02:57;;;;;;;3.63;3.40;;;;;;;;;;5115589;28;20202;-78
2021/05/25 08:05:27;;;;;;;4.80;3.60;;;;;;;;;;5115841;28;20510;-77
2021/05/25 08:07:54;;;;;;;3.63;3.33;;;;;;;;;;5115732;28;20628;-79
2021/05/25 08:10:21;;;;;;;5.97;3.83;;;;;;;;;;5115521;28;20248;-79
2021/05/25 08:12:48;;;;;;;6.35;4.10;;;;;;;;;;5115629;28;20311;-78
2021/05/25 08:15:17;;;;;;;2.92;2.75;;;;;;;;;;5114883;28;20231;-78
2021/05/25 08:18:02;;;;;;;3.63;2.90;;;;;;;;;;5114995;28;20197;-79
2021/05/25 08:20:29;;;;;;;4.22;3.33;;;;;;;;;;5115518;28;20186;-78
2021/05/25 08:22:57;;;;;;;3.72;2.70;;;;;;;;;;5115660;28;20193;-78
2021/05/25 08:25:26;;;;;;;3.17;2.83;;;;;;;;;;5115591;28;20195;-77
2021/05/25 08:27:53;;;;;;;2.30;2.20;;;;;;;;;;5115628;28;20192;-78
2021/05/25 08:30:22;;;;;;;5.22;2.28;;;;;;;;;;5115361;28;20281;-78
2021/05/25 08:32:50;;;;;;;2.00;1.90;;;;;;;;;;5114659;28;20191;-78
2021/05/25 08:35:16;;;;;;;1.70;1.60;;;;;;;;;;5114869;28;20200;-79
2021/05/25 08:37:51;;;;;;;2.40;2.20;;;;;;;;;;5114495;28;20281;-78
2021/05/25 08:40:18;;;;;;;4.90;2.00;;;;;;;;;;5115460;28;20244;-78
2021/05/25 08:42:46;;;;;;;2.03;1.92;;;;;;;;;;5114663;28;20244;-78
2021/05/25 08:45:13;;;;;;;1.65;1.55;;;;;;;;;;5115502;28;20192;-78
2021/05/25 08:47:41;;;;;;;4.77;1.83;;;;;;;;;;5115229;28;20641;-78
2021/05/25 08:50:09;;;;;;;2.00;1.77;;;;;;;;;;5114994;28;20468;-77
2021/05/25 08:52:36;;;;;;;2.40;2.27;;;;;;;;;;5114607;28;20532;-78
2021/05/25 08:55:03;;;;;;;4.80;2.43;;;;;;;;;;5114377;28;20566;-79
2021/05/25 08:57:30;;;;;;;3.10;1.60;;;;;;;;;;5114414;28;20475;-77
2021/05/25 08:59:57;;;;;;;2.13;1.80;;;;;;;;;;5114591;28;20645;-78
2021/05/25 09:02:24;;;;;;;1.83;1.73;;;;;;;;;;5115043;28;20471;-78
2021/05/25 09:04:58;;;;;;;2.03;1.93;;;;;;;;;;5114714;28;20532;-78
2021/05/25 09:07:36;;;;;;;3.07;2.17;;;;;;;;;;5114866;28;20446;-78
2021/05/25 09:10:03;;;;;;;2.80;2.50;;;;;;;;;;5114189;28;20430;-78
2021/05/25 09:12:33;;;;;;;2.60;2.40;;;;;;;;;;5114798;28;20458;-77
2021/05/25 09:15:00;;;;;;;1.73;1.63;;;;;;;;;;5114091;28;20462;-77
2021/05/25 09:17:27;;;;;;;1.90;1.80;;;;;;;;;;5114239;28;20499;-78
2021/05/25 09:19:54;;;;;;;2.80;1.60;;;;;;;;;;5113960;28;20431;-78
2021/05/25 09:22:33;;;;;;;3.27;1.50;;;;;;;;;;5114128;28;20446;-78
2021/05/25 09:25:05;;;;;;;2.53;1.60;;;;;;;;;;5114186;28;20578;-77
2021/05/25 09:27:36;;;;;;;2.10;1.90;;;;;;;;;;5114666;28;20259;-77
2021/05/25 09:30:14;;;;;;;3.17;1.87;;;;;;;;;;5113894;28;20184;-79
2021/05/25 09:32:45;;;;;;;2.17;2.07;;;;;;;;;;5113935;28;20456;-79
2021/05/25 09:35:12;;;;;;;1.80;1.70;;;;;;;;;;5114010;28;20552;-78
2021/05/25 09:37:47;;;;;;;4.60;2.00;;;;;;;;;;5113940;28;20533;-78
2021/05/25 09:40:17;;;;;;;3.33;2.13;;;;;;;;;;5114528;28;20502;-85
2021/05/25 09:42:43;;;;;;;3.38;2.70;;;;;;;;;;5114005;28;20446;-81
2021/05/25 09:45:12;;;;;;;2.90;2.63;;;;;;;;;;5113749;28;20198;-79
2021/05/25 09:47:41;;;;;;;3.28;3.08;;;;;;;;;;5113927;28;20215;-78
2021/05/25 09:50:09;;;;;;;3.80;3.50;;;;;;;;;;5114827;28;20196;-78
2021/05/25 09:52:36;;;;;;;3.95;2.85;;;;;;;;;;5113719;28;20195;-77
2021/05/25 09:55:07;;;;;;;3.30;2.97;;;;;;;;;;5114131;28;20292;-78
2021/05/25 09:57:40;;;;;;;3.17;2.80;;;;;;;;;;5113421;28;20438;-78
2021/05/25 10:00:23;;;;;;;3.43;3.23;;;;;;;;;;5113436;28;20485;-79
2021/05/25 10:03:03;;;;;;;3.30;3.00;;;;;;;;;;5113994;28;20433;-78
2021/05/25 10:05:30;;;;;;;2.90;2.70;;;;;;;;;;5113814;28;20426;-78
2021/05/25 10:07:57;;;;;;;4.00;3.30;;;;;;;;;;5113149;28;20438;-77
2021/05/25 10:10:26;;;;;;;3.70;3.50;;;;;;;;;;5113321;28;20441;-77
2021/05/25 10:12:53;;;;;;;3.70;3.40;;;;;;;;;;5115476;28;20442;-77
2021/05/25 10:15:20;;;;;;;5.20;3.60;;;;;;;;;;5117860;28;20975;-77
2021/05/25 10:17:57;;;;;;;4.43;3.87;;;;;;;;;;5118295;28;20844;-77
2021/05/25 10:20:24;;;;;;;12.50;2.93;;;;;;;;;;5117429;28;20529;-78
2021/05/25 10:22:51;;;;;;;4.10;3.70;;;;;;;;;;5117461;28;20482;-79
2021/05/25 10:25:18;;;;;;;4.10;3.70;;;;;;;;;;5117695;28;20462;-78
2021/05/25 10:27:47;;;;;;;5.97;4.50;;;;;;;;;;5117849;28;20509;-78
2021/05/25 10:30:34;;;;;;;3.93;3.63;;;;;;;;;;5117841;28;20435;-78
2021/05/25 10:33:19;;;;;;;3.67;3.10;;;;;;;;;;5117753;28;20918;-85
2021/05/25 10:35:52;;;;;;;4.30;3.90;;;;;;;;;;5117459;28;20529;-82
2021/05/25 10:38:19;;;;;;;5.20;4.47;;;;;;;;;;5117162;28;20928;-77
2021/05/25 10:40:47;;;;;;;4.67;3.63;;;;;;;;;;5117622;28;20435;-77
2021/05/25 10:43:32;;;;;;;4.27;3.97;;;;;;;;;;5117295;28;20439;-78
2021/05/25 10:46:15;;;;;;;4.20;3.73;;;;;;;;;;5117333;28;20516;-78
2021/05/25 10:48:51;;;;;;;4.17;3.47;;;;;;;;;;5116845;28;20427;-77
2021/05/25 10:51:18;;;;;;;4.30;3.10;;;;;;;;;;5117462;28;20453;-77
2021/05/25 10:53:45;;;;;;;4.77;4.37;;;;;;;;;;5117659;28;20478;-77
2021/05/25 10:56:25;;;;;;;4.10;3.77;;;;;;;;;;5116633;28;20534;-77
2021/05/25 10:59:00;;;;;;;4.13;3.80;;;;;;;;;;5117252;28;20510;-78
2021/05/25 11:01:29;;;;;;;3.50;3.20;;;;;;;;;;5117590;28;20437;-77
2021/05/25 11:04:07;;;;;;;5.43;3.20;;;;;;;;;;5116386;28;20527;-76
2021/05/25 11:06:34;;;;;;;4.20;3.13;;;;;;;;;;5117140;28;20513;-77
2021/05/25 11:09:19;;;;;;;4.07;3.73;;;;;;;;;;5117147;28;20813;-77
2021/05/25 11:11:46;;;;;;;4.20;3.90;;;;;;;;;;5116710;28;20821;-76
2021/05/25 11:14:13;;;;;;;3.53;3.23;;;;;;;;;;5116518;28;20519;-77
2021/05/25 11:16:40;;;;;;;4.43;4.10;;;;;;;;;;5116589;28;20866;-78
2021/05/25 11:24:59;;;;;;;3.50;3.20;;;;;;;;;;5115235;28;20418;-77
2021/05/25 11:27:30;;;;;;;3.67;2.90;;;;;;;;;;5115846;28;20561;-82
2021/05/25 11:29:58;;;;;;;2.97;2.13;;;;;;;;;;5116047;28;20923;-78
2021/05/25 11:32:27;;;;;;;2.00;1.90;;;;;;;;;;5116431;28;20434;-82
2021/05/25 11:34:58;;;;;;;3.80;2.05;;;;;;;;;;5116643;28;20885;-81
2021/05/25 11:37:25;;;;;;;2.60;1.70;;;;;;;;;;5116389;28;20194;-75
2021/05/25 11:39:52;;;;;;;1.90;1.60;;;;;;;;;;5116210;28;20675;-74
2021/05/25 11:42:23;;;;;;;2.80;1.80;;;;;;;;;;5116648;28;20248;-72
2021/05/25 11:45:02;;;;;;;5.55;1.80;;;;;;;;;;5116093;28;20232;-74
2021/05/25 11:47:30;;;;;;;2.00;1.75;;;;;;;;;;5116006;28;20181;-76
2021/05/25 11:49:57;;;;;;;1.70;1.60;;;;;;;;;;5115327;28;20205;-74
2021/05/25 11:52:31;;;;;;;1.98;1.88;;;;;;;;;;5116198;28;20192;-73
2021/05/25 11:54:59;;;;;;;5.13;1.60;;;;;;;;;;5115318;28;20795;-74
2021/05/25 11:57:30;;;;;;;2.10;1.90;;;;;;;;;;5115550;28;20280;-75
2021/05/25 11:59:57;;;;;;;2.92;2.17;;;;;;;;;;5115340;28;20185;-75
2021/05/25 12:02:30;;;;;;;3.00;1.70;;;;;;;;;;5115181;28;20272;-74
2021/05/25 12:05:08;;;;;;;2.20;2.10;;;;;;;;;;5116107;28;20243;-75
2021/05/25 12:07:38;;;;;;;2.47;2.28;;;;;;;;;;5115524;28;20550;-74
2021/05/25 12:10:07;;;;;;;2.60;2.00;;;;;;;;;;5115285;28;20242;-76
2021/05/25 12:12:33;;;;;;;2.47;2.28;;;;;;;;;;5115545;28;20665;-77
2021/05/25 12:15:01;;;;;;;2.47;2.38;;;;;;;;;;5115327;28;20224;-76
2021/05/25 12:17:29;;;;;;;2.90;2.70;;;;;;;;;;5115592;28;20189;-77
2021/05/25 12:19:57;;;;;;;2.70;2.40;;;;;;;;;;5115318;28;20285;-76
2021/05/25 12:22:35;;;;;;;2.85;2.28;;;;;;;;;;5116125;28;20231;-77
2021/05/25 12:25:26;;;;;;;2.42;2.33;;;;;;;;;;5116017;28;20231;-77
2021/05/25 12:27:53;;;;;;;1.98;1.88;;;;;;;;;;5095347;28;20209;-76
2021/05/25 12:30:21;;;;;;;2.72;2.50;;;;;;;;;;5115162;28;20245;-77
2021/05/25 12:32:48;;;;;;;2.85;2.65;;;;;;;;;;5114844;28;20239;-77
2021/05/25 12:35:16;;;;;;;3.15;2.60;;;;;;;;;;5114823;28;20222;-77
2021/05/25 12:37:44;;;;;;;2.88;2.67;;;;;;;;;;5114943;28;20233;-76
2021/05/25 12:40:12;;;;;;;5.28;4.70;;;;;;;;;;5114929;28;20290;-77
2021/05/25 12:42:40;;;;;;;2.45;2.35;;;;;;;;;;5114849;28;20237;-76
2021/05/25 12:45:08;;;;;;;5.13;2.90;;;;;;;;;;5114947;28;20235;-76
2021/05/25 12:47:56;;;;;;;3.03;2.72;;;;;;;;;;5114528;28;20234;-75
2021/05/25 12:50:27;;;;;;;3.83;2.50;;;;;;;;;;5114522;28;20701;-76
2021/05/25 12:53:17;;;;;;;3.05;2.60;;;;;;;;;;5114521;28;20291;-74
2021/05/25 12:55:58;;;;;;;4.00;3.63;;;;;;;;;;5094460;28;20203;-75
2021/05/25 12:58:38;;;;;;;4.90;3.80;;;;;;;;;;5115329;28;20202;-74
2021/05/25 13:01:24;;;;;;;3.90;3.53;;;;;;;;;;5114380;28;20238;-74
2021/05/25 13:03:51;;;;;;;3.35;3.15;;;;;;;;;;5114186;28;20228;-73
2021/05/25 13:06:20;;;;;;;3.80;2.80;;;;;;;;;;5114669;28;20238;-72
2021/05/25 13:08:51;;;;;;;3.05;2.60;;;;;;;;;;5114608;28;20202;-73
2021/05/25 13:11:19;;;;;;;5.32;2.88;;;;;;;;;;5114490;28;20185;-73
2021/05/25 13:13:48;;;;;;;2.40;2.20;;;;;;;;;;5114361;28;20255;-74
2021/05/25 13:16:21;;;;;;;4.63;2.65;;;;;;;;;;5120010;27;20282;-72
2021/05/25 13:18:48;;;;;;;2.63;2.03;;;;;;;;;;5128961;27;20699;-74
2021/05/25 13:21:18;;;;;;;2.10;1.90;;;;;;;;;;5134276;27;20483;-73
2021/05/25 13:23:55;;;;;;;2.60;2.40;;;;;;;;;;5134686;27;20280;-73
2021/05/25 13:26:35;;;;;;;2.85;2.00;;;;;;;;;;5134565;27;20495;-73
2021/05/25 13:29:02;;;;;;;3.93;2.53;;;;;;;;;;5135012;27;20211;-73
2021/05/25 13:31:29;;;;;;;5.32;2.20;;;;;;;;;;5134768;27;20523;-74
2021/05/25 13:33:57;;;;;;;4.47;2.43;;;;;;;;;;5135259;27;20222;-74
2021/05/25 13:36:26;;;;;;;3.67;2.80;;;;;;;;;;5134170;27;21024;-74
2021/05/25 13:38:53;;;;;;;7.63;4.27;;;;;;;;;;5134768;27;20456;-74
2021/05/25 13:41:22;;;;;;;10.30;3.30;;;;;;;;;;5134416;27;20804;-74
2021/05/25 13:43:51;;;;;;;7.40;3.77;;;;;;;;;;5134625;27;20445;-74
2021/05/25 13:46:18;;;;;;;6.37;3.67;;;;;;;;;;5121175;27;20446;-73
2021/05/25 13:48:45;;;;;;;4.18;3.45;;;;;;;;;;5113453;28;20445;-73
2021/05/25 13:51:12;;;;;;;6.15;4.30;;;;;;;;;;5113612;28;20565;-72
2021/05/25 13:53:39;;;;;;;4.15;3.80;;;;;;;;;;5113826;28;20219;-72
2021/05/25 13:56:11;;;;;;;5.40;4.00;;;;;;;;;;5113999;28;20199;-74
2021/05/25 13:58:39;;;;;;;4.00;3.60;;;;;;;;;;5114663;28;20184;-75
2021/05/25 14:03:50;;;;;;;7.97;3.90;;;;;;;;;;5113070;28;20287;-75
2021/05/25 14:06:17;;;;;;;9.02;3.63;;;;;;;;;;5113712;28;20202;-74
2021/05/25 14:08:44;;;;;;;5.90;3.58;;;;;;;;;;5113361;28;20297;-73
2021/05/25 14:11:11;;;;;;;3.63;3.33;;;;;;;;;;5113700;28;20230;-73
2021/05/25 14:13:38;;;;;;;3.40;3.10;;;;;;;;;;5113619;28;20223;-74
2021/05/25 14:16:05;;;;;;;4.30;3.90;;;;;;;;;;5113064;28;20199;-73
2021/05/25 14:18:33;;;;;;;6.75;4.10;;;;;;;;;;5114316;28;20612;-72
2021/05/25 14:21:00;;;;;;;5.57;4.55;;;;;;;;;;5113512;28;20199;-73
2021/05/25 14:23:27;;;;;;;4.00;3.60;;;;;;;;;;5113598;28;20194;-76
2021/05/25 14:25:54;;;;;;;3.30;3.10;;;;;;;;;;5113730;28;20308;-76
2021/05/25 14:28:21;;;;;;;7.35;4.30;;;;;;;;;;5113129;28;20643;-74
2021/05/25 14:30:48;;;;;;;6.00;3.80;;;;;;;;;;5113602;28;20194;-74
2021/05/25 14:33:17;;;;;;;7.05;3.90;;;;;;;;;;5113521;28;20229;-74
2021/05/25 14:35:46;;;;;;;4.93;4.05;;;;;;;;;;5114330;28;20241;-74
2021/05/25 14:38:13;;;;;;;4.75;4.25;;;;;;;;;;5113372;28;20234;-74
2021/05/25 14:40:40;;;;;;;4.50;4.10;;;;;;;;;;5113853;28;20221;-75
2021/05/25 14:43:07;;;;;;;5.47;4.65;;;;;;;;;;5113663;28;20281;-74
2021/05/25 14:45:34;;;;;;;9.45;6.97;;;;;;;;;;5113469;28;20584;-74
2021/05/25 14:48:01;;;;;;;4.32;3.90;;;;;;;;;;5113159;28;20284;-73
2021/05/25 14:50:29;;;;;;;3.80;3.50;;;;;;;;;;5113421;28;20711;-73
2021/05/25 14:53:00;;;;;;;4.50;3.10;;;;;;;;;;5113252;28;20202;-74
2021/05/25 14:55:28;;;;;;;4.78;3.20;;;;;;;;;;5113013;28;20212;-73
2021/05/25 14:57:55;;;;;;;3.38;2.83;;;;;;;;;;5113202;28;20196;-73
2021/05/25 15:00:24;;;;;;;4.75;3.05;;;;;;;;;;5116728;28;20237;-73
2021/05/25 15:02:58;;;;;;;3.28;2.97;;;;;;;;;;5117031;28;20285;-73